Latest Weather Observations for Sydney Olympic Park

IDN60801

Issued at 8:05 pm EST Sunday 31 August 2014 (issued every 30 minutes, with the page automatically refreshed every 10 minutes)

About weather observations | Map of weather stations | Latest weather observations for NSW | Other Formats
Station Details ID: 066212 Name: SYDNEY OLYMPIC PARK AWS (ARCHERY CENTRE) Lat: -33.83 Lon: 151.07 Height: 4.0 m
Data from the previous 72 hours. | See also: Recent months at Sydney Olympic Park
Date/Time
EST
Temp
°C
App
Temp
°C
Dew
Point
Rel
Hum
%
Delta-T
°C
Wind Press
QNH
hPa
Press
MSL
hPa
Rain
since 9 am
mm
Dir
 
Spd
km/h
Gust
km/h
Spd
kts
Gust
kts
31/08:00pm 13.2 13.6 12.6 96 0.3 E 2 6 1 3 - - 0.0
31/07:30pm 14.3 14.2 13.3 94 0.6 E 6 9 3 5 - - 0.0
31/07:00pm 15.3 15.2 13.3 88 1.1 E 6 9 3 5 - - 0.0
31/06:30pm 16.1 15.2 13.8 86 1.3 E 11 15 6 8 - - 0.0
31/06:00pm 16.5 15.1 13.4 82 1.7 E 13 17 7 9 - - 0.0
31/05:30pm 17.1 15.5 12.8 76 2.4 E 13 20 7 11 - - 0.0
31/05:00pm 17.9 16.2 12.6 71 2.9 E 13 20 7 11 - - 0.0
31/04:30pm 18.6 16.6 12.6 68 3.4 E 15 20 8 11 - - 0.0
31/04:00pm 18.8 16.3 12.3 66 3.6 E 17 24 9 13 - - 0.0
31/03:30pm 19.5 17.2 13.0 66 3.7 E 17 24 9 13 - - 0.0
31/03:00pm 20.1 17.7 12.8 63 4.1 SE 17 22 9 12 - - 0.0
31/02:30pm 21.5 20.5 10.9 51 5.8 SW 7 11 4 6 - - 0.0
31/02:00pm 21.8 21.1 12.1 54 5.5 NNW 7 13 4 7 - - 0.0
31/01:30pm 21.1 20.6 12.0 56 5.1 SW 6 13 3 7 - - 0.0
31/01:00pm 20.7 20.3 12.9 61 4.4 W 7 13 4 7 - - 0.0
31/12:30pm 18.8 17.3 10.4 58 4.5 S 9 17 5 9 - - 0.0
31/12:00pm 18.9 18.0 11.2 61 4.2 W 7 13 4 7 - - 0.0
31/11:30am 18.9 17.9 12.2 65 3.7 W 9 13 5 7 - - 0.0
31/11:00am 18.5 18.2 11.6 64 3.8 W 4 9 2 5 - - 0.0
31/10:30am 17.7 16.8 11.5 67 3.4 WSW 7 15 4 8 - - 0.0
31/10:00am 17.1 15.5 11.4 69 3.1 W 11 19 6 10 - - 0.0
31/09:30am 16.1 14.6 10.6 70 2.9 SW 9 17 5 9 - - 0.0
31/09:00am 15.2 12.9 10.6 74 2.4 WSW 13 17 7 9 - - 1.8
31/08:30am 14.5 12.7 10.7 78 2.0 W 11 17 6 9 - - 1.8
31/08:00am 13.5 11.2 10.3 81 1.7 WSW 13 24 7 13 - - 1.8
31/07:30am 12.7 10.7 10.2 85 1.3 WSW 11 17 6 9 - - 1.8
31/07:00am 12.3 10.7 10.2 87 1.1 WSW 9 17 5 9 - - 1.8
31/06:30am 11.7 10.1 10.1 90 0.8 W 9 17 5 9 - - 1.8
31/06:00am 11.6 10.3 10.0 90 0.8 W 7 13 4 7 - - 1.8
31/05:30am 11.7 10.4 10.1 90 0.8 WSW 7 13 4 7 - - 1.8
31/05:00am 11.6 10.3 10.0 90 0.8 W 7 11 4 6 - - 1.8
31/04:30am 11.7 10.5 10.4 92 0.7 W 7 9 4 5 - - 1.8
31/04:00am 11.7 10.6 10.6 93 0.6 W 7 13 4 7 - - 1.8
31/03:30am 11.1 10.6 10.6 97 0.3 W 4 9 2 5 - - 1.8
31/03:00am 10.2 9.4 9.6 96 0.3 W 4 7 2 4 - - 1.8
31/02:30am 11.1 11.1 9.9 92 0.6 CALM 0 0 0 0 - - 1.8
31/02:00am 12.3 11.6 10.2 87 1.1 W 4 7 2 4 - - 1.8
31/01:30am 13.1 12.6 10.6 85 1.3 WSW 4 11 2 6 - - 1.8
31/01:00am 13.5 12.4 10.7 83 1.5 WSW 7 11 4 6 - - 1.8
31/12:30am 13.7 12.7 10.9 83 1.5 W 7 11 4 6 - - 1.8
31/12:00am 13.7 12.7 10.9 83 1.5 WSW 7 11 4 6 - - 1.8
 
Date/Time
EST
Temp
°C
App
Temp
°C
Dew
Point
Rel
Hum
%
Delta-T
°C
Wind Press
QNH
hPa
Press
MSL
hPa
Rain
since 9 am
mm
Dir
 
Spd
km/h
Gust
km/h
Spd
kts
Gust
kts
30/11:30pm 14.0 13.1 11.2 83 1.5 SW 7 15 4 8 - - 1.8
30/11:00pm 14.2 12.8 11.0 81 1.7 WSW 9 13 5 7 - - 1.8
30/10:30pm 14.3 13.3 11.1 81 1.7 WSW 7 13 4 7 - - 1.8
30/10:00pm 14.4 13.7 11.4 82 1.6 SW 6 9 3 5 - - 1.8
30/09:30pm 14.7 13.4 11.3 80 1.8 SSW 9 19 5 10 - - 1.8
30/09:00pm 14.8 13.2 11.4 80 1.8 SW 11 17 6 9 - - 1.8
30/08:30pm 14.8 14.0 11.8 82 1.6 SW 7 13 4 7 - - 1.8
30/08:00pm 14.8 13.7 11.9 83 1.6 SW 9 13 5 7 - - 1.8
30/07:30pm 14.9 13.4 12.0 83 1.6 SW 11 17 6 9 - - 1.8
30/07:00pm 15.1 13.3 12.2 83 1.6 SSW 13 20 7 11 - - 1.8
30/06:30pm 15.1 12.9 12.2 83 1.6 SSW 15 22 8 12 - - 1.8
30/06:00pm 15.1 13.9 12.8 86 1.3 SW 11 17 6 9 - - 1.8
30/05:30pm 14.9 13.3 12.8 87 1.2 SSW 13 22 7 12 - - 1.8
30/05:00pm 15.0 13.2 13.2 89 1.0 S 15 30 8 16 - - 1.8
30/04:30pm 16.0 14.0 12.6 80 1.9 SSW 15 26 8 14 - - 1.6
30/04:00pm 16.0 13.6 12.7 81 1.8 SSW 17 28 9 15 - - 1.6
30/03:30pm 16.6 15.2 13.5 82 1.7 SSW 13 22 7 12 - - 1.6
30/03:00pm 15.9 14.1 13.4 85 1.4 SSW 15 26 8 14 - - 1.6
30/02:30pm 15.9 13.2 12.8 82 1.7 S 19 30 10 16 - - 1.6
30/02:00pm 17.0 15.1 13.1 78 2.2 S 15 22 8 12 - - 1.6
30/01:30pm 16.8 14.4 13.7 82 1.8 S 19 32 10 17 - - 1.6
30/01:00pm 16.3 15.7 14.7 90 0.9 S 11 20 6 11 - - 1.6
30/12:42pm 15.4 15.3 14.9 97 0.3 SSW 9 15 5 8 - - 1.6
30/12:30pm 14.8 14.5 14.5 98 0.2 SSW 9 19 5 10 - - 1.6
30/12:01pm 14.9 12.9 13.8 93 0.6 SSW 17 33 9 18 - - 1.4
30/12:00pm 15.0 12.9 13.7 92 0.7 SSW 17 33 9 18 - - 1.4
30/11:30am 15.5 13.5 13.9 90 0.9 SSW 17 30 9 16 - - 1.4
30/11:00am 14.7 13.2 14.1 96 0.3 SSW 15 30 8 16 - - 1.4
30/10:30am 13.9 13.9 13.6 98 0.2 SSW 6 20 3 11 - - 1.4
30/10:23am 13.2 13.7 12.9 98 0.2 WNW 2 6 1 3 - - 1.4
30/10:00am 12.8 12.8 12.5 98 0.2 NW 4 7 2 4 - - 1.2
30/09:30am 12.6 12.2 12.3 98 0.2 WNW 6 7 3 4 - - 0.8
30/09:00am 12.0 10.8 11.5 97 0.3 WSW 9 13 5 7 - - 0.6
30/08:44am 12.3 10.9 11.0 92 0.7 W 9 17 5 9 - - 0.4
30/08:30am 12.0 10.3 11.1 94 0.5 W 11 20 6 11 - - 0.2
30/08:00am 12.4 10.5 10.5 88 1.0 WSW 11 20 6 11 - - 0.2
30/07:42am 12.5 11.4 10.6 88 1.0 WSW 7 13 4 7 - - 0.2
30/07:30am 12.3 10.7 10.2 87 1.1 WSW 9 17 5 9 - - 0.2
30/07:22am 12.7 11.0 9.9 83 1.4 WSW 9 17 5 9 - - 0.2
30/07:00am 13.1 11.5 10.3 83 1.4 SW 9 19 5 10 - - 0.2
30/06:30am 13.6 10.9 10.4 81 1.7 SSW 15 24 8 13 - - 0.2
30/06:00am 12.9 11.5 9.4 79 1.8 WSW 7 13 4 7 - - 0.2
30/05:30am 12.7 10.7 8.6 76 2.0 W 9 13 5 7 - - 0.2
30/05:00am 13.0 11.4 8.9 76 2.1 WSW 7 13 4 7 - - 0.2
30/04:30am 13.0 11.0 8.7 75 2.2 WSW 9 15 5 8 - - 0.2
30/04:00am 13.1 11.0 8.4 73 2.3 SW 9 15 5 8 - - 0.2
30/03:30am 13.3 10.6 8.8 74 2.3 SW 13 22 7 12 - - 0.2
30/03:00am 13.0 10.4 7.7 70 2.6 WSW 11 20 6 11 - - 0.2
30/02:30am 12.8 10.5 7.5 70 2.6 W 9 13 5 7 - - 0.2
30/02:00am 12.8 10.1 7.3 69 2.7 WSW 11 17 6 9 - - 0.2
30/01:30am 12.7 10.0 7.2 69 2.7 WSW 11 17 6 9 - - 0.2
30/01:00am 12.8 9.6 7.0 68 2.8 WSW 13 20 7 11 - - 0.2
30/12:30am 12.8 10.1 7.3 69 2.7 WSW 11 20 6 11 - - 0.2
30/12:00am 12.7 10.0 7.4 70 2.6 WSW 11 19 6 10 - - 0.2
 
Date/Time
EST
Temp
°C
App
Temp
°C
Dew
Point
Rel
Hum
%
Delta-T
°C
Wind Press
QNH
hPa
Press
MSL
hPa
Rain
since 9 am
mm
Dir
 
Spd
km/h
Gust
km/h
Spd
kts
Gust
kts
29/11:30pm 12.9 10.7 7.8 71 2.5 SW 9 19 5 10 - - 0.2
29/11:00pm 13.1 11.0 8.2 72 2.4 WSW 9 17 5 9 - - 0.2
29/10:30pm 13.1 11.1 8.6 74 2.2 SW 9 19 5 10 - - 0.2
29/10:00pm 12.8 10.8 8.5 75 2.1 WSW 9 17 5 9 - - 0.2
29/09:30pm 13.3 10.9 8.8 74 2.3 WSW 11 19 6 10 - - 0.2
29/09:00pm 13.2 11.4 9.5 78 1.9 WSW 9 15 5 8 - - 0.2
29/08:30pm 13.5 11.4 9.7 78 1.9 SW 11 17 6 9 - - 0.2
29/08:00pm 13.7 12.1 10.3 80 1.8 SW 9 20 5 11 - - 0.2
29/07:30pm 13.6 12.1 10.4 81 1.7 SW 9 15 5 8 - - 0.2
29/07:00pm 13.8 11.6 10.8 82 1.6 SSW 13 22 7 12 - - 0.2
29/06:30pm 14.0 11.9 11.3 84 1.4 SSW 13 20 7 11 - - 0.2
29/06:00pm 13.9 11.9 11.6 86 1.2 SSW 13 26 7 14 - - 0.2
29/05:30pm 14.6 12.5 11.0 79 1.9 SSW 13 20 7 11 - - 0.0
29/05:00pm 15.3 12.3 10.5 73 2.5 SSW 17 32 9 17 - - 0.0
29/04:30pm 15.5 11.8 10.1 70 2.8 SSW 20 32 11 17 - - 0.0
29/04:00pm 16.3 13.0 9.5 64 3.5 S 17 28 9 15 - - 0.0
29/03:30pm 15.8 12.2 9.9 68 3.1 SSW 19 32 10 17 - - 0.0
29/03:00pm 15.9 11.1 8.9 63 3.6 S 24 35 13 19 - - 0.0
29/02:30pm 17.2 12.7 8.6 57 4.4 S 22 35 12 19 - - 0.0
29/02:00pm 17.0 13.2 9.7 62 3.8 S 20 32 11 17 - - 0.0
29/01:30pm 16.8 13.4 10.4 66 3.4 SSW 19 28 10 15 - - 0.0
29/01:00pm 16.0 13.5 11.2 73 2.6 SSW 15 30 8 16 - - 0.0
29/12:30pm 15.2 11.6 10.4 73 2.5 S 20 37 11 20 - - 0.0
29/12:00pm 16.3 11.7 9.7 65 3.4 SSE 24 39 13 21 - - 0.0
29/11:30am 16.5 13.8 10.4 67 3.2 SSW 15 24 8 13 - - 0.0
29/11:00am 14.4 11.5 11.0 80 1.8 SSE 17 26 9 14 - - 0.0
29/10:30am 16.3 13.2 10.2 67 3.2 S 17 28 9 15 - - 0.0
29/10:00am 15.3 13.5 10.7 74 2.4 SSW 11 17 6 9 - - 0.0
29/09:30am 13.9 12.4 10.5 80 1.8 WSW 9 17 5 9 - - 0.0
29/09:00am 13.2 10.3 9.8 80 1.7 WSW 15 22 8 12 - - 1.8
29/08:30am 12.4 10.8 10.3 87 1.1 WSW 9 19 5 10 - - 1.8
29/08:00am 10.5 9.4 9.9 96 0.3 W 6 9 3 5 - - 1.8
29/07:30am 9.3 7.3 8.8 97 0.2 WNW 9 13 5 7 - - 1.8
29/07:00am 8.7 6.6 8.3 97 0.2 WNW 9 15 5 8 - - 1.8
29/06:30am 8.2 6.0 7.8 97 0.2 WNW 9 11 5 6 - - 1.8
29/06:00am 9.0 7.3 8.4 96 0.3 WNW 7 9 4 5 - - 1.8
29/05:30am 9.6 8.1 9.0 96 0.3 W 7 13 4 7 - - 1.8
29/05:00am 9.2 7.8 8.7 97 0.2 W 6 11 3 6 - - 1.8
29/04:30am 8.8 7.7 8.4 97 0.2 W 4 9 2 5 - - 1.8
29/04:00am 8.5 6.9 8.1 97 0.2 WNW 6 9 3 5 - - 1.8
29/03:30am 8.2 6.4 7.8 97 0.2 WNW 7 11 4 6 - - 1.8
29/03:00am 8.5 6.9 8.1 97 0.2 WNW 6 9 3 5 - - 1.8
29/02:30am 8.8 7.7 8.4 97 0.2 WNW 4 7 2 4 - - 1.8
29/02:00am 9.6 8.3 9.1 97 0.2 WNW 6 7 3 4 - - 1.8
29/01:30am 10.2 9.3 9.4 95 0.4 WNW 4 7 2 4 - - 1.8
29/01:00am 9.9 8.7 9.4 97 0.2 W 6 13 3 7 - - 1.8
29/12:30am 10.0 9.2 9.5 97 0.2 W 4 9 2 5 - - 1.8
29/12:00am 9.6 8.3 9.1 97 0.2 W 6 9 3 5 - - 1.8
 
Date/Time
EST
Temp
°C
App
Temp
°C
Dew
Point
Rel
Hum
%
Delta-T
°C
Wind Press
QNH
hPa
Press
MSL
hPa
Rain
since 9 am
mm
Dir
 
Spd
km/h
Gust
km/h
Spd
kts
Gust
kts
28/11:30pm 9.7 8.4 9.2 97 0.2 WNW 6 7 3 4 - - 1.8
28/11:00pm 11.0 9.6 9.6 91 0.7 WSW 7 11 4 6 - - 1.8
28/10:30pm 11.1 9.7 9.5 90 0.8 WSW 7 11 4 6 - - 1.8
28/10:00pm 11.5 10.2 9.8 89 0.9 WSW 7 13 4 7 - - 1.8
28/09:30pm 11.5 9.9 10.2 92 0.7 WSW 9 13 5 7 - - 1.8
28/09:00pm 10.8 9.7 9.9 94 0.5 WSW 6 9 3 5 - - 1.8
28/08:30pm 10.4 9.2 9.6 95 0.4 WSW 6 9 3 5 - - 1.8

Other Formats:

Comma delimited format used in spreadsheet applications
http://www.bom.gov.au/fwo/IDN60801/IDN60801.95765.axf

JavaScript Object Notation format (JSON) in row-major order
http://www.bom.gov.au/fwo/IDN60801/IDN60801.95765.json